createdAt,value
2022-09-25T00:01:15.614Z,9.57
2022-09-25T00:06:22.804Z,8.15
2022-09-25T00:11:27.609Z,6.85
2022-09-25T00:16:31.674Z,10.52
2022-09-25T00:21:35.216Z,9.15
2022-09-25T00:26:40.577Z,6.13
2022-09-25T00:31:43.120Z,6.63
2022-09-25T00:36:45.119Z,11.10
2022-09-25T00:41:47.355Z,9.68
2022-09-25T00:46:49.351Z,7.85
2022-09-25T00:51:59.474Z,12.38
2022-09-25T00:57:06.637Z,8.10
2022-09-25T01:02:14.114Z,10.30
2022-09-25T01:07:16.745Z,8.57
2022-09-25T01:12:18.754Z,6.55
2022-09-25T01:18:03.196Z,12.20
2022-09-25T01:23:17.476Z,7.55
2022-09-25T01:28:29.488Z,11.45
2022-09-25T01:33:36.666Z,8.48
2022-09-25T01:38:47.126Z,8.48
2022-09-25T01:44:10.119Z,10.23
2022-09-25T01:49:20.323Z,9.00
2022-09-25T01:54:28.404Z,15.13
2022-09-25T01:59:44.429Z,14.05
2022-09-25T02:04:55.154Z,11.27
2022-09-25T02:10:04.794Z,10.10
2022-09-25T02:15:44.189Z,10.30
2022-09-25T02:20:59.026Z,11.63
2022-09-25T02:26:09.097Z,11.82
2022-09-25T02:31:13.759Z,8.35
2022-09-25T02:36:19.086Z,10.02
2022-09-25T02:41:46.104Z,13.57
2022-09-25T02:47:12.750Z,11.93
2022-09-25T02:52:22.668Z,8.88
2022-09-25T02:57:31.650Z,8.70
2022-09-25T03:02:36.535Z,10.98
2022-09-25T03:07:59.333Z,8.77
2022-09-25T03:13:16.309Z,10.18
2022-09-25T03:18:19.083Z,12.20
2022-09-25T03:23:21.048Z,10.00
2022-09-25T03:28:23.478Z,11.73
2022-09-25T03:33:27.031Z,11.25
2022-09-25T03:38:29.019Z,11.63
2022-09-25T03:43:32.560Z,9.98
2022-09-25T03:48:35.017Z,13.07
2022-09-25T03:53:37.391Z,9.80
2022-09-25T03:58:39.764Z,13.55
2022-09-25T04:03:47.047Z,11.88
2022-09-25T04:08:49.950Z,11.38
2022-09-25T04:13:52.517Z,15.73
2022-09-25T04:18:54.665Z,13.90
2022-09-25T04:24:15.201Z,10.07
2022-09-25T04:29:17.421Z,13.00
2022-09-25T04:34:19.418Z,12.35
2022-09-25T04:39:21.393Z,11.55
2022-09-25T04:44:23.412Z,11.73
2022-09-25T04:49:25.370Z,11.25
2022-09-25T04:54:27.475Z,14.23
2022-09-25T04:59:29.447Z,11.15
2022-09-25T05:04:31.436Z,10.07
2022-09-25T05:09:33.732Z,8.05
2022-09-25T05:14:35.769Z,12.27
2022-09-25T05:19:38.527Z,9.10
2022-09-25T05:24:40.510Z,11.13
2022-09-25T05:29:42.539Z,9.27
2022-09-25T05:34:44.525Z,10.43
2022-09-25T05:39:46.535Z,10.88
2022-09-25T05:44:48.574Z,10.75
2022-09-25T05:49:50.584Z,10.68
2022-09-25T05:54:53.038Z,9.95
2022-09-25T05:59:55.022Z,10.88
2022-09-25T06:04:57.056Z,10.95
2022-09-25T06:09:59.072Z,11.05
2022-09-25T06:15:01.134Z,9.48
2022-09-25T06:20:03.399Z,10.80
2022-09-25T06:25:06.218Z,13.32
2022-09-25T06:30:08.461Z,9.40
2022-09-25T06:35:10.463Z,10.20
2022-09-25T06:40:12.465Z,10.23
2022-09-25T06:45:14.620Z,9.68
2022-09-25T06:50:16.679Z,9.65
2022-09-25T06:55:18.650Z,9.60
2022-09-25T07:00:20.685Z,10.38
2022-09-25T07:05:22.695Z,10.50
2022-09-25T07:10:24.799Z,8.60
2022-09-25T07:15:26.848Z,12.10
2022-09-25T07:20:28.823Z,10.05
2022-09-25T07:25:33.663Z,8.93
2022-09-25T07:30:36.195Z,10.93
2022-09-25T07:35:38.197Z,12.60
2022-09-25T07:40:40.268Z,11.23
2022-09-25T07:45:49.406Z,7.47
2022-09-25T07:50:51.528Z,9.80
2022-09-25T07:55:56.802Z,7.85
2022-09-25T08:01:00.731Z,11.95
2022-09-25T08:06:02.849Z,9.43
2022-09-25T08:11:07.809Z,13.20
2022-09-25T08:16:13.552Z,4.60
2022-09-25T08:21:18.729Z,11.88
2022-09-25T08:26:21.949Z,9.50
2022-09-25T08:31:24.028Z,10.95
2022-09-25T08:36:26.031Z,12.75
2022-09-25T08:41:32.562Z,7.05
2022-09-25T08:47:01.877Z,7.72
2022-09-25T08:52:08.188Z,5.75
2022-09-25T08:57:22.192Z,7.28
2022-09-25T09:02:54.792Z,13.48
2022-09-25T09:08:06.089Z,6.07
2022-09-25T09:13:24.672Z,12.57
2022-09-25T09:18:29.172Z,8.43
2022-09-25T09:23:36.989Z,4.80
2022-09-25T09:28:51.141Z,4.95
2022-09-25T09:34:53.546Z,7.25
2022-09-25T09:40:16.614Z,3.67
2022-09-25T09:45:46.204Z,5.80
2022-09-25T09:51:04.027Z,2.55
2022-09-25T09:56:14.676Z,5.15
2022-09-25T10:06:51.150Z,3.08
2022-09-25T10:12:07.413Z,3.65
2022-09-25T10:17:11.570Z,2.60
2022-09-25T10:22:17.599Z,3.47
2022-09-25T10:27:22.565Z,4.38
2022-09-25T10:32:24.604Z,2.28
2022-09-25T10:37:34.799Z,2.70
2022-09-25T10:42:40.991Z,3.13
2022-09-25T10:48:01.755Z,2.75
2022-09-25T10:53:05.335Z,6.23
2022-09-25T10:58:21.473Z,5.20
2022-09-25T11:03:27.548Z,3.70
2022-09-25T11:08:34.265Z,3.95
2022-09-25T11:13:55.317Z,5.13
2022-09-25T11:19:16.444Z,6.85
2022-09-25T11:24:37.073Z,3.15
2022-09-25T11:29:44.589Z,5.53
2022-09-25T11:35:02.038Z,2.47
2022-09-25T11:40:29.065Z,4.00
2022-09-25T11:45:55.654Z,2.10
2022-09-25T11:51:12.889Z,2.38
2022-09-25T11:56:35.876Z,1.90
2022-09-25T12:01:47.829Z,1.70
2022-09-25T12:07:01.356Z,4.20
2022-09-25T12:12:13.433Z,2.92
2022-09-25T12:17:34.116Z,2.47
2022-09-25T12:23:13.773Z,1.65
2022-09-25T12:28:27.523Z,2.70
2022-09-25T12:33:52.396Z,4.38
2022-09-25T12:39:01.393Z,2.40
2022-09-25T12:44:27.555Z,2.80
2022-09-25T12:49:43.600Z,2.35
2022-09-25T12:55:13.490Z,2.83
2022-09-25T13:00:21.208Z,1.60
2022-09-25T13:05:33.870Z,3.50
2022-09-25T13:10:41.346Z,4.05
2022-09-25T13:15:43.664Z,4.68
2022-09-25T13:20:51.042Z,1.50
2022-09-25T13:26:02.378Z,2.05
2022-09-25T13:31:12.457Z,1.25
2022-09-25T13:36:40.292Z,2.35
2022-09-25T13:41:55.968Z,3.22
2022-09-25T13:47:26.680Z,2.13
2022-09-25T13:52:48.597Z,3.42
2022-09-25T13:57:59.847Z,1.58
2022-09-25T14:03:03.031Z,2.60
2022-09-25T14:08:14.705Z,2.20
2022-09-25T14:13:21.222Z,3.10
2022-09-25T14:18:38.653Z,3.42
2022-09-25T14:23:53.227Z,1.40
2022-09-25T14:28:57.375Z,2.22
2022-09-25T14:34:30.041Z,1.73
2022-09-25T14:39:50.751Z,1.98
2022-09-25T14:45:00.026Z,2.63
2022-09-25T14:50:03.930Z,3.22
2022-09-25T14:55:07.243Z,1.63
2022-09-25T15:00:17.120Z,2.70
2022-09-25T15:05:31.646Z,2.65
2022-09-25T15:10:38.631Z,1.92
2022-09-25T15:15:41.026Z,2.63
2022-09-25T15:20:47.651Z,3.80
2022-09-25T15:25:53.337Z,3.58
2022-09-25T15:30:58.018Z,4.25
2022-09-25T15:36:03.436Z,2.20
2022-09-25T15:41:12.759Z,3.30
2022-09-25T15:46:39.530Z,3.20
2022-09-25T15:51:52.625Z,2.35
2022-09-25T15:56:56.994Z,1.50
2022-09-25T16:02:24.811Z,2.47
2022-09-25T16:07:36.236Z,1.63
2022-09-25T16:12:42.175Z,2.25
2022-09-25T16:17:44.182Z,1.73
2022-09-25T16:22:50.803Z,1.65
2022-09-25T16:28:00.253Z,3.50
2022-09-25T16:33:15.133Z,2.38
2022-09-25T16:38:27.778Z,2.15
2022-09-25T16:43:30.129Z,2.75
2022-09-25T16:48:37.530Z,2.00
2022-09-25T16:53:39.992Z,1.13
2022-09-25T16:58:42.166Z,2.72
2022-09-25T17:03:50.947Z,4.22
2022-09-25T17:08:53.383Z,1.55
2022-09-25T17:13:56.173Z,2.70
2022-09-25T17:19:01.513Z,1.50
2022-09-25T17:24:03.834Z,2.90
2022-09-25T17:29:06.798Z,3.53
2022-09-25T17:34:17.445Z,2.50
2022-09-25T17:39:19.526Z,3.00
2022-09-25T17:44:23.835Z,4.10
2022-09-25T17:49:26.140Z,2.90
2022-09-25T17:54:31.511Z,5.43
2022-09-25T17:59:33.502Z,3.03
2022-09-25T18:04:35.524Z,3.58
2022-09-25T18:09:37.521Z,3.75
2022-09-25T18:14:39.575Z,5.43
2022-09-25T18:20:00.406Z,5.72
2022-09-25T18:25:02.420Z,4.23
2022-09-25T18:30:04.997Z,8.50
2022-09-25T18:35:07.947Z,9.90
2022-09-25T18:40:11.752Z,11.00
2022-09-25T18:45:15.693Z,8.32
2022-09-25T18:50:25.530Z,8.03
2022-09-25T18:55:27.632Z,8.65
2022-09-25T19:00:29.789Z,7.90
2022-09-25T19:05:32.566Z,9.20
2022-09-25T19:10:34.607Z,5.28
2022-09-25T19:15:36.727Z,7.13
2022-09-25T19:20:46.054Z,5.63
2022-09-25T19:25:59.032Z,9.55
2022-09-25T19:31:04.378Z,7.18
2022-09-25T19:36:10.069Z,9.70
2022-09-25T19:41:17.830Z,10.90
2022-09-25T19:46:20.223Z,10.00
2022-09-25T19:51:23.639Z,6.63
2022-09-25T19:56:26.845Z,5.07
2022-09-25T20:01:30.169Z,6.10
2022-09-25T20:06:34.731Z,4.75
2022-09-25T20:11:36.912Z,6.68
2022-09-25T20:16:38.951Z,10.57
2022-09-25T20:21:41.678Z,5.15
2022-09-25T20:26:43.885Z,5.18
2022-09-25T20:31:46.372Z,5.70
2022-09-25T20:36:48.846Z,5.72
2022-09-25T20:41:50.998Z,9.43
2022-09-25T20:46:53.174Z,5.95
2022-09-25T20:51:55.273Z,7.55
2022-09-25T20:56:57.626Z,6.55
2022-09-25T21:01:59.796Z,4.80
2022-09-25T21:07:03.510Z,6.80
2022-09-25T21:12:05.799Z,5.03
2022-09-25T21:17:07.877Z,6.55
2022-09-25T21:22:09.925Z,7.70
2022-09-25T21:27:11.888Z,8.23
2022-09-25T21:32:13.884Z,8.18
2022-09-25T21:37:15.858Z,10.07
2022-09-25T21:42:17.890Z,7.97
2022-09-25T21:47:20.236Z,10.93
2022-09-25T21:52:24.978Z,9.38
2022-09-25T21:57:27.116Z,5.28
2022-09-25T22:02:31.172Z,6.85
2022-09-25T22:07:33.744Z,7.60
2022-09-25T22:12:35.732Z,5.97
2022-09-25T22:17:37.743Z,8.88
2022-09-25T22:22:39.732Z,6.20
2022-09-25T22:27:41.710Z,7.03
2022-09-25T22:32:43.677Z,8.77
2022-09-25T22:37:45.909Z,5.30
2022-09-25T22:42:47.877Z,5.13
2022-09-25T22:47:49.877Z,5.88
2022-09-25T22:52:55.218Z,6.60
2022-09-25T22:58:00.225Z,6.93
2022-09-25T23:03:02.239Z,4.25
2022-09-25T23:08:05.032Z,4.70
2022-09-25T23:13:07.115Z,6.57
2022-09-25T23:18:09.099Z,6.38
2022-09-25T23:23:11.117Z,7.28
2022-09-25T23:28:13.949Z,5.05
2022-09-25T23:33:15.929Z,7.93
2022-09-25T23:38:17.908Z,5.30
2022-09-25T23:43:20.705Z,9.13
2022-09-25T23:48:22.790Z,7.28
2022-09-25T23:53:24.849Z,9.05
2022-09-25T23:58:28.116Z,8.23
